Time;durP1;ratioP1;P1;durP2;ratioP2;P2;SDS_P1;SDS_P2;PMS_P1;PMS_P2;Temp;Humidity;BMP_temperature;BMP_pressure;BME280_temperature;BME280_humidity;BME280_pressure;Samples;Min_cycle;Max_cycle;Signal;HPM_P1;HPM_P2
2024/01/02 00:00:20;;;;;;;5.35;2.03;;;8.30;99.90;;;;;;5034062;28;20431;-52
2024/01/02 00:02:46;;;;;;;6.80;2.25;;;8.30;99.90;;;;;;5033955;28;20034;-53
2024/01/02 00:05:11;;;;;;;12.48;2.65;;;8.30;99.90;;;;;;5034136;28;20560;-53
2024/01/02 00:07:36;;;;;;;10.90;1.88;;;8.30;99.90;;;;;;5034030;28;20076;-55
2024/01/02 00:10:02;;;;;;;5.57;1.65;;;8.30;99.90;;;;;;5033876;28;20056;-48
2024/01/02 00:12:28;;;;;;;3.70;2.08;;;8.30;99.90;;;;;;5015847;28;20029;-55
2024/01/02 00:14:53;;;;;;;9.90;1.95;;;8.30;99.90;;;;;;5033940;28;20519;-54
2024/01/02 00:17:19;;;;;;;6.63;1.83;;;8.30;99.90;;;;;;5033218;28;20037;-51
2024/01/02 00:19:44;;;;;;;10.05;2.67;;;8.30;99.90;;;;;;5033812;28;20045;-55
2024/01/02 00:22:10;;;;;;;10.23;3.40;;;8.30;99.90;;;;;;5033645;28;20025;-52
2024/01/02 00:24:35;;;;;;;6.30;2.63;;;8.30;99.90;;;;;;5033604;28;20530;-56
2024/01/02 00:27:02;;;;;;;11.35;2.58;;;8.40;99.90;;;;;;5033598;28;20029;-54
2024/01/02 00:29:28;;;;;;;8.98;2.00;;;8.30;99.90;;;;;;5015804;28;20080;-54
2024/01/02 00:31:53;;;;;;;5.80;2.22;;;8.30;99.90;;;;;;5033339;28;20022;-52
2024/01/02 00:34:18;;;;;;;6.85;2.30;;;8.40;99.90;;;;;;5033130;28;20036;-48
2024/01/02 00:36:44;;;;;;;6.25;2.58;;;8.40;99.90;;;;;;5033169;28;20113;-55
2024/01/02 00:39:10;;;;;;;13.90;4.07;;;8.40;99.90;;;;;;5032844;28;20444;-54
2024/01/02 00:41:36;;;;;;;7.72;3.05;;;8.30;99.90;;;;;;5033239;28;20025;-57
2024/01/02 00:44:01;;;;;;;4.93;2.30;;;8.30;99.90;;;;;;5033064;28;20029;-54
2024/01/02 00:46:27;;;;;;;8.32;2.35;;;8.30;99.90;;;;;;5033015;28;20503;-51
2024/01/02 00:48:52;;;;;;;10.27;2.17;;;8.40;99.90;;;;;;5032995;28;20088;-46
2024/01/02 00:51:18;;;;;;;4.70;2.00;;;8.30;99.90;;;;;;5014892;28;20029;-53
2024/01/02 00:53:43;;;;;;;6.22;2.35;;;8.30;99.90;;;;;;5032788;28;20029;-49
2024/01/02 00:56:09;;;;;;;9.43;1.85;;;8.30;99.90;;;;;;5033107;28;20067;-52
2024/01/02 00:58:34;;;;;;;8.55;2.33;;;8.20;99.90;;;;;;5032807;28;20375;-52
2024/01/02 01:01:00;;;;;;;4.75;2.13;;;8.30;99.90;;;;;;5032838;28;20033;-51
2024/01/02 01:03:25;;;;;;;8.15;2.42;;;8.20;99.90;;;;;;5032558;28;20076;-52
2024/01/02 01:05:51;;;;;;;4.07;1.58;;;8.20;99.90;;;;;;5032751;28;20477;-53
2024/01/02 01:08:16;;;;;;;8.85;3.03;;;8.20;99.90;;;;;;5013947;28;20481;-52
2024/01/02 01:10:42;;;;;;;4.10;1.77;;;8.20;99.90;;;;;;5032673;28;20033;-51
2024/01/02 01:13:07;;;;;;;8.43;3.20;;;8.10;99.90;;;;;;5032467;28;20026;-55
2024/01/02 01:15:33;;;;;;;3.38;1.83;;;8.10;99.90;;;;;;5032594;28;20170;-55
2024/01/02 01:17:58;;;;;;;3.47;1.77;;;8.10;99.90;;;;;;5032453;28;20030;-53
2024/01/02 01:20:24;;;;;;;6.45;2.30;;;8.10;99.90;;;;;;5032522;28;20033;-54
2024/01/02 01:22:49;;;;;;;7.10;2.05;;;8.10;99.90;;;;;;5032174;28;20026;-53
2024/01/02 01:25:15;;;;;;;7.32;2.75;;;8.10;99.90;;;;;;5032558;28;20079;-50
2024/01/02 01:27:40;;;;;;;4.50;1.95;;;8.00;99.90;;;;;;5032367;28;20492;-48
2024/01/02 01:30:08;;;;;;;6.00;1.80;;;8.00;99.90;;;;;;5032577;28;20041;-53
2024/01/02 01:32:34;;;;;;;7.30;1.85;;;8.00;99.90;;;;;;5032132;28;20433;-52
2024/01/02 01:34:59;;;;;;;9.27;1.90;;;7.90;99.90;;;;;;5032336;28;20021;-50
2024/01/02 01:37:25;;;;;;;8.38;2.30;;;8.00;99.90;;;;;;5014170;28;20123;-52
2024/01/02 01:39:50;;;;;;;6.63;2.05;;;7.90;99.90;;;;;;5032566;28;20025;-52
2024/01/02 01:42:16;;;;;;;5.47;1.80;;;7.80;99.90;;;;;;5032046;28;20396;-52
2024/01/02 01:44:41;;;;;;;5.85;2.03;;;7.80;99.90;;;;;;5031974;28;20064;-50
2024/01/02 01:47:07;;;;;;;5.75;1.92;;;7.80;99.90;;;;;;5032100;28;20049;-55
2024/01/02 01:49:33;;;;;;;9.10;3.03;;;7.70;99.90;;;;;;5014603;28;20029;-52
2024/01/02 01:51:59;;;;;;;5.28;1.88;;;7.70;99.90;;;;;;5031945;28;20063;-50
2024/01/02 01:54:25;;;;;;;10.48;2.85;;;7.60;99.90;;;;;;5031754;28;20038;-50
2024/01/02 01:56:52;;;;;;;6.07;1.92;;;7.70;99.90;;;;;;5031824;28;20033;-52
2024/01/02 01:59:18;;;;;;;7.57;3.30;;;7.70;99.90;;;;;;5031989;28;20022;-56
2024/01/02 02:01:45;;;;;;;4.78;1.95;;;7.70;99.90;;;;;;5031795;28;20034;-53
2024/01/02 02:04:11;;;;;;;5.60;2.67;;;7.70;99.90;;;;;;5031700;28;20440;-54
2024/01/02 02:06:36;;;;;;;13.07;2.30;;;7.70;99.90;;;;;;5031984;28;20030;-52
2024/01/02 02:09:02;;;;;;;6.30;2.00;;;7.60;99.90;;;;;;5031915;28;20086;-52
2024/01/02 02:11:29;;;;;;;4.30;1.50;;;7.60;99.90;;;;;;5031947;28;20079;-52
2024/01/02 02:13:55;;;;;;;12.18;2.65;;;7.60;99.90;;;;;;5031881;28;20033;-55
2024/01/02 02:16:20;;;;;;;7.57;2.00;;;7.60;99.90;;;;;;5045863;28;20029;-55
2024/01/02 02:18:46;;;;;;;8.20;2.28;;;7.60;99.90;;;;;;5033936;28;20088;-52
2024/01/02 02:21:11;;;;;;;6.70;1.98;;;7.60;99.90;;;;;;5031254;28;20405;-53
2024/01/02 02:23:37;;;;;;;5.32;2.42;;;7.60;99.90;;;;;;5031316;28;20100;-52
2024/01/02 02:26:02;;;;;;;1.65;1.23;;;7.60;99.90;;;;;;5031510;28;20026;-54
2024/01/02 02:28:28;;;;;;;4.70;1.98;;;7.60;99.90;;;;;;5031448;28;20422;-54
2024/01/02 02:30:53;;;;;;;7.10;1.70;;;7.50;99.90;;;;;;5031471;28;20105;-53
2024/01/02 02:33:19;;;;;;;3.65;1.60;;;7.50;99.90;;;;;;5031138;28;20539;-53
2024/01/02 02:35:44;;;;;;;1.58;1.20;;;7.50;99.90;;;;;;5031221;28;20038;-55
2024/01/02 02:38:10;;;;;;;2.35;1.40;;;7.50;99.90;;;;;;5031170;28;20175;-53
2024/01/02 02:40:37;;;;;;;3.05;1.15;;;7.60;99.90;;;;;;5031308;28;20025;-54
2024/01/02 02:43:03;;;;;;;5.50;1.83;;;7.60;99.90;;;;;;5031185;28;20018;-49
2024/01/02 02:45:28;;;;;;;6.65;1.60;;;7.60;99.90;;;;;;5031283;28;20030;-52
2024/01/02 02:47:54;;;;;;;3.28;1.73;;;7.50;99.90;;;;;;5031137;28;20036;-52
2024/01/02 02:50:19;;;;;;;5.68;1.88;;;7.50;99.90;;;;;;5031699;28;20021;-51
2024/01/02 02:52:45;;;;;;;5.85;1.58;;;7.40;99.90;;;;;;5031012;28;20393;-53
2024/01/02 02:55:10;;;;;;;2.05;1.65;;;7.40;99.90;;;;;;5031230;28;20045;-53
2024/01/02 02:57:36;;;;;;;2.67;1.50;;;7.30;99.90;;;;;;5031369;28;20087;-51
2024/01/02 03:00:03;;;;;;;3.53;1.30;;;7.30;99.90;;;;;;5031512;28;20031;-50
2024/01/02 03:02:29;;;;;;;3.53;1.50;;;7.30;99.90;;;;;;5030872;28;20096;-49
2024/01/02 03:04:55;;;;;;;4.80;1.50;;;7.30;99.90;;;;;;5031115;28;20049;-53
2024/01/02 03:07:20;;;;;;;4.95;2.17;;;7.20;99.90;;;;;;5031150;28;20026;-48
2024/01/02 03:09:46;;;;;;;1.75;1.35;;;7.20;99.90;;;;;;5031039;28;20028;-48
2024/01/02 03:12:14;;;;;;;4.25;1.40;;;7.20;99.90;;;;;;5031322;28;20037;-50
2024/01/02 03:14:40;;;;;;;3.72;1.20;;;7.20;99.90;;;;;;5013678;28;20030;-50
2024/01/02 03:17:06;;;;;;;6.07;1.63;;;7.20;99.90;;;;;;5013138;28;20018;-51
2024/01/02 03:19:31;;;;;;;3.03;1.45;;;7.20;99.90;;;;;;5030851;28;20096;-52
2024/01/02 03:21:57;;;;;;;2.28;1.08;;;7.20;99.90;;;;;;5030955;28;20032;-47
2024/01/02 03:24:22;;;;;;;3.33;1.30;;;7.20;99.90;;;;;;5013173;28;20034;-49
2024/01/02 03:26:48;;;;;;;3.08;1.20;;;7.10;99.90;;;;;;5013295;28;20029;-51
2024/01/02 03:29:16;;;;;;;1.48;1.25;;;7.10;99.90;;;;;;5031178;28;20022;-53
2024/01/02 03:31:45;;;;;;;2.85;1.60;;;7.10;99.90;;;;;;5031335;28;20049;-52
2024/01/02 03:34:11;;;;;;;2.80;1.70;;;7.10;99.90;;;;;;5034171;28;20029;-49
2024/01/02 03:36:36;;;;;;;4.03;1.70;;;7.10;99.90;;;;;;5034389;28;20025;-51
2024/01/02 03:39:02;;;;;;;1.35;1.10;;;7.10;99.90;;;;;;5034567;28;20083;-49
2024/01/02 03:41:28;;;;;;;6.80;1.23;;;7.10;99.90;;;;;;5034551;28;20017;-50
2024/01/02 03:43:53;;;;;;;2.90;0.98;;;7.10;99.90;;;;;;5034605;28;20432;-50
2024/01/02 03:46:19;;;;;;;4.85;1.30;;;7.10;99.90;;;;;;5034985;28;20488;-48
2024/01/02 03:48:44;;;;;;;3.47;1.20;;;7.10;99.90;;;;;;5017293;28;20382;-51
2024/01/02 03:51:11;;;;;;;0.90;0.90;;;7.10;99.90;;;;;;5034878;28;20036;-47
2024/01/02 03:53:37;;;;;;;2.70;1.65;;;7.10;99.90;;;;;;5034447;28;20057;-52
2024/01/02 03:56:03;;;;;;;5.35;0.98;;;7.10;99.90;;;;;;5034260;28;20479;-50
2024/01/02 03:58:30;;;;;;;3.13;1.27;;;7.10;99.90;;;;;;5034141;28;20052;-46
2024/01/02 04:00:56;;;;;;;3.60;1.02;;;7.10;99.90;;;;;;5034160;28;20052;-48
2024/01/02 04:03:21;;;;;;;2.50;1.10;;;7.10;99.90;;;;;;5033747;28;20442;-49
2024/01/02 04:05:47;;;;;;;2.35;1.13;;;7.10;99.90;;;;;;5034117;28;20389;-50
2024/01/02 04:08:12;;;;;;;2.33;1.63;;;7.10;99.90;;;;;;5034209;28;20064;-47
2024/01/02 04:10:39;;;;;;;4.40;1.30;;;7.10;99.90;;;;;;5034086;28;20029;-48
2024/01/02 04:13:05;;;;;;;4.45;1.25;;;7.10;99.90;;;;;;5033667;28;20025;-49
2024/01/02 04:15:30;;;;;;;2.08;1.10;;;7.10;99.90;;;;;;5033844;28;20034;-49
2024/01/02 04:17:56;;;;;;;2.88;0.93;;;7.10;99.90;;;;;;5033449;28;20168;-52
2024/01/02 04:20:22;;;;;;;1.75;0.82;;;7.10;99.90;;;;;;5034110;28;20079;-51
2024/01/02 04:22:49;;;;;;;2.17;1.35;;;7.10;99.90;;;;;;5033549;28;20049;-47
2024/01/02 04:25:15;;;;;;;4.18;1.17;;;7.10;99.90;;;;;;5033690;28;20021;-44
2024/01/02 04:27:40;;;;;;;2.08;1.10;;;7.20;99.90;;;;;;5033718;28;20033;-46
2024/01/02 04:30:07;;;;;;;0.70;0.70;;;7.20;99.90;;;;;;5015889;28;20025;-53
2024/01/02 04:32:33;;;;;;;1.55;1.00;;;7.20;99.90;;;;;;5033205;28;20040;-48
2024/01/02 04:34:58;;;;;;;1.42;0.80;;;7.20;99.90;;;;;;5033657;28;20033;-52
2024/01/02 04:37:30;;;;;;;3.30;1.13;;;7.30;99.90;;;;;;5033775;28;20495;-43
2024/01/02 04:39:55;;;;;;;3.00;1.00;;;7.20;99.90;;;;;;5015812;28;20472;-49
2024/01/02 04:42:21;;;;;;;5.07;1.55;;;7.20;99.90;;;;;;5032995;28;20057;-51
2024/01/02 04:44:46;;;;;;;1.27;1.15;;;7.20;99.90;;;;;;5033546;28;20093;-54
2024/01/02 04:47:12;;;;;;;2.90;1.17;;;7.20;99.90;;;;;;5033229;28;20029;-52
2024/01/02 04:49:37;;;;;;;1.85;1.13;;;7.20;99.90;;;;;;5015606;28;20037;-54
2024/01/02 04:52:03;;;;;;;1.13;0.85;;;7.20;99.90;;;;;;5015712;28;20025;-52
2024/01/02 04:54:29;;;;;;;2.95;0.88;;;7.20;99.90;;;;;;5033036;28;20021;-53
2024/01/02 04:56:55;;;;;;;0.90;0.90;;;7.20;99.90;;;;;;5033146;28;20026;-48
2024/01/02 04:59:20;;;;;;;1.13;0.70;;;7.20;99.90;;;;;;5033094;28;20022;-52
2024/01/02 05:01:46;;;;;;;2.05;1.10;;;7.20;99.90;;;;;;5033022;28;20033;-52
2024/01/02 05:04:11;;;;;;;2.05;0.90;;;7.20;99.90;;;;;;5015398;28;20052;-52
2024/01/02 05:06:37;;;;;;;2.17;1.23;;;7.20;99.90;;;;;;5015514;28;20053;-50
2024/01/02 05:09:02;;;;;;;2.78;0.80;;;7.10;99.90;;;;;;5015445;28;20059;-53
2024/01/02 05:11:28;;;;;;;2.42;0.98;;;;;;;;;;5015208;28;20396;-52
2024/01/02 05:13:54;;;;;;;0.80;0.80;;;7.20;99.90;;;;;;5032894;28;20037;-53
2024/01/02 05:16:19;;;;;;;1.45;0.77;;;7.30;99.90;;;;;;5032904;28;20036;-53
2024/01/02 05:18:44;;;;;;;2.28;0.90;;;7.30;99.90;;;;;;5032977;28;20018;-49
2024/01/02 05:21:10;;;;;;;1.52;0.88;;;7.30;99.90;;;;;;5032926;28;20039;-53
2024/01/02 05:23:36;;;;;;;2.33;1.10;;;7.30;99.90;;;;;;5032683;28;20026;-56
2024/01/02 05:26:01;;;;;;;0.80;0.80;;;7.30;99.90;;;;;;5032999;28;20041;-51
2024/01/02 05:28:27;;;;;;;2.70;0.88;;;7.30;99.90;;;;;;5032786;28;20021;-53
2024/01/02 05:30:52;;;;;;;1.30;1.20;;;7.30;99.90;;;;;;5032768;28;20099;-53
2024/01/02 05:33:18;;;;;;;1.48;0.90;;;7.30;99.90;;;;;;5032584;28;20075;-52
2024/01/02 05:35:43;;;;;;;2.47;0.93;;;7.30;99.90;;;;;;5032886;28;20029;-47
2024/01/02 05:38:09;;;;;;;2.25;1.50;;;7.30;99.90;;;;;;5014585;28;20025;-49
2024/01/02 05:40:34;;;;;;;3.20;0.82;;;7.30;99.90;;;;;;5014542;28;20044;-51
2024/01/02 05:43:00;;;;;;;3.80;0.80;;;7.30;99.90;;;;;;5032000;28;20057;-49
2024/01/02 05:45:25;;;;;;;2.40;1.00;;;7.30;99.90;;;;;;5014393;28;20028;-50
2024/01/02 05:47:51;;;;;;;2.10;0.80;;;7.40;99.90;;;;;;5032206;28;20146;-49
2024/01/02 05:50:16;;;;;;;2.47;0.85;;;7.40;99.90;;;;;;5032454;28;20541;-49
2024/01/02 05:52:42;;;;;;;1.00;0.88;;;7.40;99.90;;;;;;5032338;28;20075;-54
2024/01/02 05:55:08;;;;;;;0.82;0.82;;;7.40;99.90;;;;;;5014022;28;20520;-48
2024/01/02 05:57:34;;;;;;;2.35;1.10;;;7.40;99.90;;;;;;5032123;28;20033;-52
2024/01/02 05:59:59;;;;;;;0.98;0.75;;;7.40;99.90;;;;;;5014729;28;20052;-50
2024/01/02 06:02:25;;;;;;;0.70;0.70;;;7.40;99.90;;;;;;5031991;28;20083;-50
2024/01/02 06:04:51;;;;;;;1.00;0.98;;;7.40;99.90;;;;;;5032130;28;20017;-48
2024/01/02 06:07:16;;;;;;;1.17;0.85;;;7.40;99.90;;;;;;5032215;28;20170;-51
2024/01/02 06:09:42;;;;;;;2.30;1.20;;;7.40;99.90;;;;;;5032141;28;20488;-53
2024/01/02 06:12:08;;;;;;;0.77;0.73;;;7.40;99.90;;;;;;5014145;28;20444;-55
2024/01/02 06:14:34;;;;;;;2.15;0.80;;;7.40;99.90;;;;;;5031716;28;20052;-48
2024/01/02 06:16:59;;;;;;;1.75;1.08;;;7.50;99.90;;;;;;5032193;28;20029;-50
2024/01/02 06:19:25;;;;;;;0.70;0.70;;;7.50;99.90;;;;;;5031837;28;20543;-52
2024/01/02 06:21:51;;;;;;;0.70;0.70;;;7.40;99.90;;;;;;5031962;28;20096;-51
2024/01/02 06:24:16;;;;;;;0.85;0.85;;;7.40;99.90;;;;;;5014028;28;20029;-50
2024/01/02 06:26:41;;;;;;;0.60;0.60;;;7.50;99.90;;;;;;5031885;28;20028;-50
2024/01/02 06:29:07;;;;;;;0.70;0.60;;;7.50;99.90;;;;;;5031485;28;20272;-53
2024/01/02 06:31:33;;;;;;;1.25;0.98;;;7.50;99.90;;;;;;5031706;28;20108;-51
2024/01/02 06:33:59;;;;;;;0.80;0.80;;;7.50;99.90;;;;;;5033252;28;20034;-52
2024/01/02 06:36:24;;;;;;;0.93;0.88;;;7.50;99.90;;;;;;5014748;28;20507;-52
2024/01/02 06:38:50;;;;;;;0.70;0.70;;;7.50;99.90;;;;;;5031910;28;20120;-52
2024/01/02 06:41:15;;;;;;;2.22;0.63;;;7.50;99.90;;;;;;5031986;28;20021;-49
2024/01/02 06:43:41;;;;;;;2.10;0.73;;;7.50;99.90;;;;;;5031796;28;20485;-52
2024/01/02 06:46:07;;;;;;;1.60;0.60;;;7.50;99.90;;;;;;5031589;28;20035;-54
2024/01/02 06:48:34;;;;;;;0.80;0.70;;;7.50;99.90;;;;;;5031557;28;20508;-49
2024/01/02 06:50:59;;;;;;;0.70;0.60;;;7.50;99.90;;;;;;5031491;28;20033;-52
2024/01/02 06:53:25;;;;;;;0.50;0.50;;;7.60;99.90;;;;;;5031387;28;20041;-54
2024/01/02 06:55:50;;;;;;;2.15;0.80;;;7.60;99.90;;;;;;5013754;28;20489;-50
2024/01/02 06:58:16;;;;;;;0.77;0.77;;;7.60;99.90;;;;;;5031168;28;20033;-52
2024/01/02 07:00:41;;;;;;;1.20;0.73;;;7.60;99.90;;;;;;5031449;28;20079;-54
2024/01/02 07:03:07;;;;;;;0.70;0.70;;;7.60;99.90;;;;;;5031092;28;20428;-49
2024/01/02 07:05:32;;;;;;;0.50;0.50;;;7.60;99.90;;;;;;5031977;28;20112;-52
2024/01/02 07:07:58;;;;;;;0.63;0.63;;;7.90;99.90;;;;;;5035280;28;20034;-55
2024/01/02 07:10:24;;;;;;;0.65;0.50;;;8.00;99.90;;;;;;5035555;28;20494;-52
2024/01/02 07:12:50;;;;;;;0.52;0.52;;;8.10;99.90;;;;;;5034947;28;20029;-53
2024/01/02 07:15:16;;;;;;;1.02;0.50;;;8.10;99.90;;;;;;5017590;28;20125;-51
2024/01/02 07:17:42;;;;;;;0.50;0.50;;;8.00;99.90;;;;;;5017271;28;20064;-50
2024/01/02 07:20:08;;;;;;;0.50;0.50;;;7.90;99.90;;;;;;5035093;28;20029;-53
2024/01/02 07:22:34;;;;;;;0.75;0.60;;;8.00;99.90;;;;;;5017100;28;20078;-54
2024/01/02 07:24:59;;;;;;;0.40;0.40;;;8.00;99.90;;;;;;5035094;28;20481;-49
2024/01/02 07:27:25;;;;;;;2.20;0.65;;;7.90;99.90;;;;;;5016939;28;20029;-51
2024/01/02 07:29:51;;;;;;;0.63;0.40;;;;;;;;;;5017350;28;20061;-55
2024/01/02 07:32:18;;;;;;;0.32;0.32;;;;;;;;;;5034660;28;20072;-55
2024/01/02 07:34:44;;;;;;;0.40;0.40;;;;;;;;;;5034722;28;20052;-50
2024/01/02 07:37:11;;;;;;;0.55;0.50;;;;;;;;;;5034424;28;20029;-51
2024/01/02 07:39:36;;;;;;;2.08;0.60;;;8.40;99.90;;;;;;5034501;28;20030;-51
2024/01/02 07:42:02;;;;;;;0.47;0.47;;;8.40;99.90;;;;;;5016900;28;20400;-51
2024/01/02 07:44:28;;;;;;;1.25;0.60;;;8.40;99.90;;;;;;5016734;28;20033;-55
2024/01/02 07:46:53;;;;;;;2.75;0.50;;;8.40;99.90;;;;;;5034791;28;20031;-50
2024/01/02 07:49:19;;;;;;;1.55;0.60;;;8.50;99.90;;;;;;5016889;28;20563;-52
2024/01/02 07:51:44;;;;;;;1.00;0.40;;;8.50;99.90;;;;;;5034560;28;20022;-49
2024/01/02 07:54:10;;;;;;;0.40;0.40;;;8.50;99.90;;;;;;5034386;28;20018;-48
2024/01/02 07:56:35;;;;;;;0.52;0.30;;;8.60;99.90;;;;;;5034369;28;20033;-51
2024/01/02 07:59:01;;;;;;;0.30;0.30;;;8.60;99.90;;;;;;5034173;28;20125;-54
2024/01/02 08:01:27;;;;;;;0.45;0.45;;;8.80;99.90;;;;;;5016595;28;20022;-48
2024/01/02 08:03:52;;;;;;;0.40;0.40;;;8.80;99.90;;;;;;5034155;28;20554;-49
2024/01/02 08:06:18;;;;;;;0.35;0.35;;;8.80;99.90;;;;;;5016963;28;20021;-52
2024/01/02 08:08:43;;;;;;;0.30;0.30;;;8.90;99.90;;;;;;5034435;28;20029;-51
2024/01/02 08:11:09;;;;;;;0.93;0.47;;;9.00;99.90;;;;;;5034357;28;20118;-50
2024/01/02 08:13:35;;;;;;;0.95;0.32;;;9.10;99.90;;;;;;5033578;28;20029;-51
2024/01/02 08:16:03;;;;;;;0.47;0.43;;;9.20;99.90;;;;;;5034406;28;20022;-52
2024/01/02 08:18:29;;;;;;;0.40;0.40;;;9.20;99.90;;;;;;5033363;28;20032;-51
2024/01/02 08:20:55;;;;;;;0.30;0.30;;;9.30;99.90;;;;;;5034050;28;20496;-55
2024/01/02 08:23:20;;;;;;;1.02;0.50;;;9.30;99.90;;;;;;5033583;28;20088;-53
2024/01/02 08:25:46;;;;;;;0.43;0.43;;;9.40;99.90;;;;;;5033800;28;20021;-53
2024/01/02 08:28:11;;;;;;;0.40;0.40;;;9.40;99.90;;;;;;5033653;28;20025;-49
2024/01/02 08:30:37;;;;;;;3.13;0.57;;;9.40;99.90;;;;;;5033717;28;20158;-54
2024/01/02 08:33:02;;;;;;;0.32;0.32;;;9.40;99.90;;;;;;5033376;28;20037;-53
2024/01/02 08:35:28;;;;;;;0.40;0.40;;;9.40;99.90;;;;;;5033715;28;20037;-56
2024/01/02 08:37:53;;;;;;;1.00;0.35;;;9.50;99.90;;;;;;5033192;28;20084;-55
2024/01/02 08:40:19;;;;;;;0.20;0.20;;;9.50;99.90;;;;;;5033259;28;20504;-56
2024/01/02 08:42:44;;;;;;;0.28;0.28;;;9.50;99.90;;;;;;5032990;28;20037;-54
2024/01/02 08:45:10;;;;;;;0.25;0.25;;;9.50;99.90;;;;;;5033172;28;20037;-50
2024/01/02 08:47:38;;;;;;;0.90;0.40;;;9.60;99.90;;;;;;5032764;28;20416;-52
2024/01/02 08:50:07;;;;;;;0.30;0.30;;;9.50;99.90;;;;;;5022378;28;20033;-49
2024/01/02 08:52:35;;;;;;;0.30;0.30;;;9.50;99.90;;;;;;5030642;28;20084;-53
2024/01/02 08:55:01;;;;;;;0.35;0.30;;;9.50;99.90;;;;;;5014583;28;20030;-46
2024/01/02 08:57:26;;;;;;;0.30;0.30;;;9.60;99.90;;;;;;5033086;28;20023;-50
2024/01/02 08:59:52;;;;;;;0.30;0.30;;;9.60;99.90;;;;;;5032613;28;20032;-54
2024/01/02 09:02:17;;;;;;;0.30;0.30;;;9.60;99.90;;;;;;5014927;28;20506;-48
2024/01/02 09:04:43;;;;;;;0.30;0.30;;;9.60;99.90;;;;;;5015251;28;20021;-50
2024/01/02 09:07:09;;;;;;;0.30;0.30;;;9.60;99.90;;;;;;5032852;28;20031;-51
2024/01/02 09:09:35;;;;;;;0.20;0.20;;;9.60;99.90;;;;;;5032178;28;20088;-49
2024/01/02 09:12:02;;;;;;;1.13;0.30;;;9.60;99.90;;;;;;5014948;28;20397;-49
2024/01/02 09:14:28;;;;;;;0.30;0.30;;;9.60;99.90;;;;;;5032434;28;20029;-52
2024/01/02 09:16:54;;;;;;;0.40;0.40;;;9.60;99.90;;;;;;5032717;28;20029;-52
2024/01/02 09:19:19;;;;;;;0.50;0.50;;;9.70;99.90;;;;;;5032664;28;20031;-51
2024/01/02 09:21:45;;;;;;;1.42;0.55;;;9.60;99.90;;;;;;5014818;28;20018;-52
2024/01/02 09:24:13;;;;;;;0.28;0.28;;;9.70;99.90;;;;;;5032534;28;20477;-54
2024/01/02 09:26:40;;;;;;;0.30;0.30;;;9.70;99.90;;;;;;5014639;28;20348;-49
2024/01/02 09:29:05;;;;;;;2.75;0.43;;;9.70;99.90;;;;;;5031865;28;20025;-52
2024/01/02 09:31:31;;;;;;;0.52;0.47;;;9.70;99.90;;;;;;5032537;28;20049;-49
2024/01/02 09:33:57;;;;;;;0.30;0.30;;;9.70;99.90;;;;;;5032056;28;20416;-53
2024/01/02 09:36:22;;;;;;;0.30;0.30;;;9.70;99.90;;;;;;5032125;28;20029;-50
2024/01/02 09:38:48;;;;;;;0.25;0.25;;;9.70;99.90;;;;;;5014313;28;20044;-53
2024/01/02 09:41:41;;;;;;;0.40;0.40;;;9.70;99.90;;;;;;5014604;28;20033;-51
2024/01/02 09:44:44;;;;;;;0.30;0.30;;;9.70;99.90;;;;;;5031438;28;20025;-62
2024/01/02 09:47:28;;;;;;;1.98;0.40;;;9.70;99.90;;;;;;5032142;28;20021;-49
2024/01/02 09:49:58;;;;;;;0.93;0.38;;;9.70;99.90;;;;;;5032456;28;20057;-49
2024/01/02 09:52:39;;;;;;;0.50;0.50;;;9.70;99.90;;;;;;5014331;28;20033;-49
2024/01/02 09:55:42;;;;;;;0.30;0.30;;;9.70;99.90;;;;;;5014371;28;20064;-49
2024/01/02 09:58:34;;;;;;;0.43;0.38;;;9.70;99.90;;;;;;5030525;28;20055;-54
2024/01/02 10:01:37;;;;;;;0.73;0.50;;;9.70;99.90;;;;;;5031645;28;20632;-49
2024/01/02 10:04:26;;;;;;;0.40;0.40;;;9.70;99.90;;;;;;5031501;28;20101;-52
2024/01/02 10:07:27;;;;;;;0.63;0.40;;;9.70;99.90;;;;;;5032186;28;20400;-50
2024/01/02 10:10:11;;;;;;;0.57;0.57;;;9.80;99.90;;;;;;5031637;28;20028;-50
2024/01/02 10:12:56;;;;;;;0.35;0.35;;;9.80;99.90;;;;;;5031627;28;20029;-52
2024/01/02 10:15:28;;;;;;;0.43;0.43;;;9.80;99.90;;;;;;5031486;28;20034;-50
2024/01/02 10:18:32;;;;;;;0.45;0.40;;;9.80;99.90;;;;;;5013242;28;20033;-50
2024/01/02 10:21:18;;;;;;;0.55;0.55;;;9.70;99.90;;;;;;5030423;28;20025;-51
2024/01/02 10:23:59;;;;;;;0.35;0.35;;;9.70;99.90;;;;;;5030868;28;20025;-47
2024/01/02 10:26:28;;;;;;;0.40;0.40;;;9.80;99.90;;;;;;5013754;28;20444;-51
2024/01/02 10:29:03;;;;;;;1.17;0.40;;;9.80;99.90;;;;;;5030752;28;20025;-50
2024/01/02 10:32:07;;;;;;;0.30;0.30;;;9.80;99.90;;;;;;5031287;28;20027;-52
2024/01/02 10:34:46;;;;;;;0.43;0.30;;;9.80;99.90;;;;;;4999343;28;20493;-50
2024/01/02 10:37:13;;;;;;;4.28;1.23;;;9.90;99.90;;;;;;4993882;28;20092;-50
2024/01/02 10:40:06;;;;;;;0.65;0.45;;;9.90;99.90;;;;;;5049884;23;20068;-52
2024/01/02 10:43:06;;;;;;;0.47;0.47;;;9.90;99.90;;;;;;5057928;28;20013;-50
2024/01/02 10:46:19;;;;;;;0.43;0.43;;;10.00;99.90;;;;;;5029622;28;20029;-54
2024/01/02 10:48:54;;;;;;;0.65;0.60;;;9.90;99.90;;;;;;5018733;28;20025;-53
2024/01/02 10:51:38;;;;;;;1.15;0.80;;;10.00;99.90;;;;;;5034265;28;20026;-52
2024/01/02 10:54:05;;;;;;;1.52;0.50;;;10.00;99.90;;;;;;5051126;28;20076;-52
2024/01/02 10:56:57;;;;;;;0.38;0.38;;;10.00;99.90;;;;;;5045898;28;20028;-52
2024/01/02 10:59:32;;;;;;;0.30;0.30;;;10.00;99.90;;;;;;5048510;28;20090;-48
2024/01/02 11:02:26;;;;;;;0.52;0.52;;;10.00;99.90;;;;;;5038322;28;20022;-53
2024/01/02 11:05:06;;;;;;;0.70;0.70;;;10.10;99.90;;;;;;5038519;28;20032;-54
2024/01/02 11:07:35;;;;;;;0.52;0.40;;;10.10;99.90;;;;;;5038021;28;20040;-48
2024/01/02 11:10:14;;;;;;;0.50;0.50;;;10.00;99.90;;;;;;5057520;28;20036;-52
2024/01/02 11:12:46;;;;;;;0.40;0.40;;;10.20;99.90;;;;;;5045457;28;20408;-48
2024/01/02 11:15:14;;;;;;;0.85;0.85;;;10.10;99.90;;;;;;5039601;28;20025;-53
2024/01/02 11:17:41;;;;;;;0.30;0.30;;;10.10;99.90;;;;;;5041282;28;20033;-52
2024/01/02 11:20:13;;;;;;;0.30;0.30;;;10.10;99.90;;;;;;5066687;28;20021;-51
2024/01/02 11:22:53;;;;;;;0.30;0.30;;;10.10;99.90;;;;;;5043817;28;20029;-55
2024/01/02 11:25:23;;;;;;;0.43;0.40;;;10.20;99.90;;;;;;5045705;28;20047;-55
2024/01/02 11:27:51;;;;;;;0.38;0.38;;;10.20;99.90;;;;;;5065132;28;20035;-56
2024/01/02 11:30:18;;;;;;;0.40;0.40;;;10.20;99.90;;;;;;5067534;28;20070;-52
2024/01/02 11:33:11;;;;;;;0.30;0.30;;;10.20;99.90;;;;;;5065136;28;20052;-54
2024/01/02 11:35:44;;;;;;;0.40;0.40;;;10.10;99.90;;;;;;5068325;28;20059;-55
2024/01/02 11:38:11;;;;;;;9.07;1.00;;;10.20;99.90;;;;;;5066005;28;20116;-55
2024/01/02 11:40:55;;;;;;;0.30;0.30;;;10.20;99.90;;;;;;5046485;28;20027;-54
2024/01/02 11:43:38;;;;;;;0.30;0.30;;;10.20;99.90;;;;;;5066092;28;20103;-56
2024/01/02 11:46:06;;;;;;;0.90;0.50;;;10.20;99.90;;;;;;5065115;28;20036;-58
2024/01/02 11:48:53;;;;;;;0.77;0.30;;;10.20;99.90;;;;;;5049733;28;20389;-59
2024/01/02 11:51:25;;;;;;;0.93;0.45;;;10.30;99.90;;;;;;5066744;28;20138;-56
2024/01/02 11:54:11;;;;;;;0.40;0.30;;;10.30;99.90;;;;;;5073142;28;20089;-55
2024/01/02 11:56:37;;;;;;;0.30;0.30;;;10.30;99.90;;;;;;5036581;28;20029;-55
2024/01/02 11:59:41;;;;;;;0.22;0.22;;;10.20;99.90;;;;;;5023338;28;20024;-55
2024/01/02 12:02:26;;;;;;;0.68;0.30;;;10.30;99.90;;;;;;5048130;28;20489;-55
2024/01/02 12:05:10;;;;;;;0.20;0.20;;;10.20;99.90;;;;;;5032826;28;20024;-56
2024/01/02 12:07:38;;;;;;;0.20;0.20;;;10.20;99.90;;;;;;5041898;28;20030;-55
2024/01/02 12:10:05;;;;;;;0.30;0.30;;;10.20;99.90;;;;;;5067576;28;20350;-56
2024/01/02 12:12:42;;;;;;;0.25;0.25;;;10.20;99.90;;;;;;5034394;28;20017;-55
2024/01/02 12:15:51;;;;;;;0.30;0.30;;;10.10;99.90;;;;;;5021668;28;20033;-55
2024/01/02 12:18:22;;;;;;;0.35;0.35;;;10.10;99.90;;;;;;4957637;28;20050;-55
2024/01/02 12:21:00;;;;;;;0.30;0.30;;;10.10;99.90;;;;;;4964393;28;20070;-57
2024/01/02 12:23:26;;;;;;;0.20;0.20;;;10.10;99.90;;;;;;5000026;28;20492;-52
2024/01/02 12:25:59;;;;;;;0.40;0.40;;;10.10;99.90;;;;;;5047876;28;20492;-54
2024/01/02 12:28:26;;;;;;;0.20;0.20;;;10.00;99.90;;;;;;5046468;28;20033;-57
2024/01/02 12:31:13;;;;;;;0.40;0.40;;;10.00;99.90;;;;;;5024397;28;20087;-54
2024/01/02 12:33:46;;;;;;;0.40;0.40;;;10.00;99.90;;;;;;5035305;28;20036;-53
2024/01/02 12:36:23;;;;;;;0.38;0.38;;;9.90;99.90;;;;;;5037325;28;20029;-57
2024/01/02 12:38:51;;;;;;;0.35;0.35;;;9.90;99.90;;;;;;5042018;28;20029;-54
2024/01/02 12:41:26;;;;;;;0.47;0.47;;;9.90;99.90;;;;;;5053461;28;20079;-46
2024/01/02 12:44:05;;;;;;;0.95;0.47;;;9.90;99.90;;;;;;5048547;28;20033;-54
2024/01/02 12:47:05;;;;;;;0.30;0.30;;;9.90;99.90;;;;;;5028181;28;20112;-53
2024/01/02 12:49:34;;;;;;;1.60;0.60;;;9.80;99.90;;;;;;5048753;28;20048;-54
2024/01/02 12:52:04;;;;;;;0.40;0.40;;;9.80;99.90;;;;;;5024960;28;20032;-54
2024/01/02 12:54:30;;;;;;;0.40;0.40;;;9.70;99.90;;;;;;5034687;28;20392;-49
2024/01/02 12:57:02;;;;;;;0.30;0.30;;;9.70;99.90;;;;;;5038314;28;20094;-50
2024/01/02 12:59:29;;;;;;;0.55;0.55;;;9.70;99.90;;;;;;5051603;28;20013;-51
2024/01/02 13:01:56;;;;;;;0.43;0.43;;;9.70;99.90;;;;;;5034475;28;20032;-49
2024/01/02 13:04:21;;;;;;;1.10;0.93;;;9.70;99.90;;;;;;5039680;28;20115;-52
2024/01/02 13:06:47;;;;;;;0.60;0.57;;;9.70;99.90;;;;;;5052795;28;20520;-48